Time;durP1;ratioP1;P1;durP2;ratioP2;P2;SDS_P1;SDS_P2;PMS_P1;PMS_P2;Temp;Humidity;BMP_temperature;BMP_pressure;BME280_temperature;BME280_humidity;BME280_pressure;Samples;Min_cycle;Max_cycle;Signal;HPM_P1;HPM_P2
2022/06/06 00:01:47;;;;;;;5.47;5.05;;;13.70;99.90;;;;;;5050547;28;20064;-75
2022/06/06 00:04:15;;;;;;;5.43;4.93;;;13.70;99.90;;;;;;5033988;28;20056;-75
2022/06/06 00:06:42;;;;;;;7.05;5.70;;;13.70;99.90;;;;;;5042241;28;20045;-74
2022/06/06 00:09:11;;;;;;;6.55;4.80;;;13.70;99.90;;;;;;5043485;28;20108;-75
2022/06/06 00:11:40;;;;;;;7.38;5.40;;;13.70;99.90;;;;;;5048705;28;20051;-74
2022/06/06 00:14:08;;;;;;;13.30;5.65;;;13.70;99.90;;;;;;5049815;28;20152;-75
2022/06/06 00:16:36;;;;;;;5.97;5.13;;;13.70;99.90;;;;;;5051131;28;20047;-75
2022/06/06 00:19:05;;;;;;;5.93;5.43;;;13.70;99.90;;;;;;5029877;28;20048;-75
2022/06/06 00:21:33;;;;;;;5.50;5.05;;;13.70;99.90;;;;;;5049375;28;20144;-75
2022/06/06 00:24:01;;;;;;;6.72;5.13;;;13.70;99.90;;;;;;5050545;28;20041;-75
2022/06/06 00:26:30;;;;;;;6.47;5.20;;;13.60;99.90;;;;;;5048993;28;20049;-74
2022/06/06 00:28:58;;;;;;;7.70;5.13;;;13.60;99.90;;;;;;5048560;28;20107;-74
2022/06/06 00:36:58;;;;;;;7.03;5.35;;;13.40;99.90;;;;;;5047148;28;20052;-75
2022/06/06 00:39:25;;;;;;;7.82;5.68;;;13.40;99.90;;;;;;5050429;28;20056;-75
2022/06/06 00:41:56;;;;;;;5.72;5.22;;;13.40;99.90;;;;;;5048435;28;20056;-74
2022/06/06 00:44:25;;;;;;;7.72;5.35;;;13.40;99.90;;;;;;5033112;28;20044;-74
2022/06/06 00:46:57;;;;;;;6.80;5.35;;;13.50;99.90;;;;;;5047098;28;20052;-74
2022/06/06 00:49:30;;;;;;;5.97;5.38;;;13.50;99.90;;;;;;5065482;28;20420;-74
2022/06/06 00:51:57;;;;;;;6.00;5.22;;;13.50;99.90;;;;;;5049831;28;20076;-78
2022/06/06 00:54:25;;;;;;;6.05;4.30;;;13.50;99.90;;;;;;5048693;28;21437;-78
2022/06/06 00:56:56;;;;;;;4.50;4.05;;;13.50;99.90;;;;;;5031894;28;20045;-78
2022/06/06 00:59:29;;;;;;;5.78;4.25;;;13.50;99.90;;;;;;5049523;28;20041;-78
2022/06/06 01:01:57;;;;;;;6.82;3.95;;;13.50;99.90;;;;;;5048814;28;20053;-78
2022/06/06 01:04:27;;;;;;;3.90;3.60;;;13.40;99.90;;;;;;5046542;28;20523;-78
2022/06/06 01:06:56;;;;;;;3.95;3.63;;;13.40;99.90;;;;;;5049469;28;20051;-78
2022/06/06 01:09:25;;;;;;;4.00;3.70;;;13.30;99.90;;;;;;5050221;28;20055;-78
2022/06/06 01:11:59;;;;;;;4.05;3.15;;;13.30;99.90;;;;;;5051027;28;20540;-78
2022/06/06 01:14:29;;;;;;;8.32;4.00;;;13.30;99.90;;;;;;5045650;28;20048;-78
2022/06/06 01:17:03;;;;;;;7.05;3.70;;;13.20;99.90;;;;;;5050383;28;20064;-77
2022/06/06 01:20:00;;;;;;;5.43;3.38;;;13.20;99.90;;;;;;5029914;28;20049;-78
2022/06/06 01:23:02;;;;;;;3.53;3.33;;;13.10;99.90;;;;;;5027044;28;20126;-73
2022/06/06 01:26:03;;;;;;;5.75;3.65;;;13.00;99.90;;;;;;5030788;28;20060;-73
2022/06/06 01:28:46;;;;;;;4.22;2.97;;;12.90;99.90;;;;;;5027846;28;20053;-73
2022/06/06 01:31:19;;;;;;;4.40;3.28;;;12.80;99.90;;;;;;5042761;28;20065;-74
2022/06/06 01:33:51;;;;;;;;;;;12.80;99.90;;;;;;5045852;28;20056;-73
2022/06/06 01:36:20;;;;;;;3.15;2.78;;;12.70;99.90;;;;;;5049239;28;19924;-73
2022/06/06 01:38:48;;;;;;;3.65;2.83;;;12.60;99.90;;;;;;5049450;28;20528;-74
2022/06/06 01:41:22;;;;;;;5.03;2.97;;;12.50;99.90;;;;;;5043148;28;20057;-73
2022/06/06 01:43:56;;;;;;;4.57;3.17;;;12.50;99.90;;;;;;5048794;28;20051;-74
2022/06/06 01:46:29;;;;;;;6.28;2.90;;;12.40;99.90;;;;;;5050438;28;20449;-74
2022/06/06 01:48:57;;;;;;;5.10;3.90;;;12.40;99.90;;;;;;5047993;28;20144;-74
2022/06/06 01:51:28;;;;;;;3.00;2.80;;;12.40;99.90;;;;;;5042283;28;20095;-74
2022/06/06 01:53:56;;;;;;;7.72;2.80;;;12.40;99.90;;;;;;5032051;28;20045;-74
2022/06/06 01:56:26;;;;;;;2.55;2.35;;;12.40;99.90;;;;;;5048789;28;20044;-74
2022/06/06 01:58:55;;;;;;;2.92;2.63;;;12.30;99.90;;;;;;5047651;28;20095;-74
2022/06/06 02:01:22;;;;;;;6.63;2.60;;;12.30;99.90;;;;;;5047527;28;20041;-74
2022/06/06 02:03:49;;;;;;;2.63;2.42;;;12.30;99.90;;;;;;5049175;28;20045;-75
2022/06/06 02:06:17;;;;;;;2.70;2.42;;;12.30;99.90;;;;;;5049255;28;20119;-74
2022/06/06 02:08:45;;;;;;;2.85;2.65;;;12.30;99.90;;;;;;5046361;28;20072;-74
2022/06/06 02:11:12;;;;;;;3.33;3.00;;;12.20;99.90;;;;;;5049593;28;20115;-74
2022/06/06 02:13:40;;;;;;;3.03;2.70;;;12.20;99.90;;;;;;5051389;28;20063;-74
2022/06/06 02:16:09;;;;;;;3.95;2.60;;;12.20;99.90;;;;;;5051924;28;20548;-78
2022/06/06 02:18:36;;;;;;;3.03;2.47;;;12.20;99.90;;;;;;5049605;28;20037;-78
2022/06/06 02:21:04;;;;;;;2.83;2.63;;;12.20;99.90;;;;;;5053647;28;20053;-79
2022/06/06 02:23:32;;;;;;;3.85;3.00;;;12.20;99.90;;;;;;5035950;28;20456;-77
2022/06/06 02:25:59;;;;;;;3.08;2.50;;;12.20;99.90;;;;;;5046252;28;20521;-77
2022/06/06 02:28:27;;;;;;;4.50;2.95;;;12.20;99.90;;;;;;5030277;28;20075;-78
2022/06/06 02:30:54;;;;;;;3.30;2.42;;;12.10;99.90;;;;;;5033401;28;20049;-78
2022/06/06 02:33:22;;;;;;;3.15;2.33;;;12.10;99.90;;;;;;5036188;28;20314;-78
2022/06/06 02:35:50;;;;;;;3.13;2.92;;;12.10;99.90;;;;;;5052541;28;20232;-79
2022/06/06 02:38:17;;;;;;;3.75;2.60;;;12.10;99.90;;;;;;5050624;28;20223;-78
2022/06/06 02:40:44;;;;;;;2.47;2.20;;;12.10;99.90;;;;;;5052822;28;20049;-77
2022/06/06 02:43:13;;;;;;;2.90;2.40;;;12.10;99.90;;;;;;5051573;28;20107;-77
2022/06/06 02:45:40;;;;;;;3.85;1.75;;;12.10;99.90;;;;;;5041738;28;20132;-77
2022/06/06 02:48:09;;;;;;;2.42;2.22;;;12.10;99.90;;;;;;5052686;28;20052;-78
2022/06/06 02:50:38;;;;;;;2.25;2.10;;;12.10;99.90;;;;;;5051783;28;20061;-76
2022/06/06 02:53:06;;;;;;;2.97;1.70;;;12.10;99.90;;;;;;5050787;28;20080;-78
2022/06/06 02:55:34;;;;;;;3.58;3.17;;;12.10;99.90;;;;;;5050221;28;20049;-73
2022/06/06 02:58:03;;;;;;;1.90;1.80;;;12.20;99.90;;;;;;5046028;28;20049;-73
2022/06/06 03:00:32;;;;;;;2.28;2.08;;;12.10;99.90;;;;;;5030060;28;20056;-73
2022/06/06 03:02:59;;;;;;;2.22;2.10;;;12.10;99.90;;;;;;5025412;28;20045;-77
2022/06/06 03:05:37;;;;;;;2.10;2.00;;;12.10;99.90;;;;;;5042608;28;20429;-77
2022/06/06 03:08:16;;;;;;;2.17;1.98;;;12.20;99.90;;;;;;5050353;28;20052;-78
2022/06/06 03:10:58;;;;;;;2.45;1.85;;;12.10;99.90;;;;;;5051667;28;20045;-74
2022/06/06 03:13:38;;;;;;;3.47;2.10;;;12.10;99.90;;;;;;5048581;28;20136;-75
2022/06/06 03:22:11;;;;;;;2.58;2.05;;;12.20;99.90;;;;;;5032622;28;20045;-75
2022/06/06 03:24:52;;;;;;;4.95;2.00;;;12.20;99.90;;;;;;5047210;28;20053;-75
2022/06/06 03:27:27;;;;;;;2.83;1.90;;;12.20;99.90;;;;;;5033280;28;20093;-75
2022/06/06 03:30:02;;;;;;;2.55;1.85;;;12.20;99.90;;;;;;5049770;28;20056;-74
2022/06/06 03:32:46;;;;;;;3.70;2.08;;;12.20;99.90;;;;;;5048286;28;20040;-74
2022/06/06 03:35:21;;;;;;;3.53;1.88;;;12.20;99.90;;;;;;5052577;28;20489;-74
2022/06/06 03:37:54;;;;;;;4.53;2.03;;;12.20;99.90;;;;;;5049395;28;20041;-74
2022/06/06 03:40:32;;;;;;;1.92;1.83;;;12.20;99.90;;;;;;5050687;28;20144;-75
2022/06/06 03:43:07;;;;;;;1.67;1.58;;;12.30;99.90;;;;;;5049310;28;20057;-74
2022/06/06 03:45:40;;;;;;;2.05;1.95;;;12.30;99.90;;;;;;5051075;28;20052;-75
2022/06/06 03:48:22;;;;;;;3.20;1.90;;;12.30;99.90;;;;;;5050297;28;20080;-75
2022/06/06 03:51:00;;;;;;;1.90;1.80;;;12.30;99.90;;;;;;5048766;28;20056;-74
2022/06/06 03:53:37;;;;;;;6.78;1.90;;;12.40;99.90;;;;;;5033569;28;20139;-74
2022/06/06 03:56:18;;;;;;;2.45;1.80;;;12.40;99.90;;;;;;5049628;28;20143;-74
2022/06/06 03:58:47;;;;;;;2.25;2.10;;;12.40;99.90;;;;;;5051672;28;20053;-75
2022/06/06 04:01:16;;;;;;;6.13;2.17;;;12.40;99.90;;;;;;5046517;28;20539;-74
2022/06/06 04:03:45;;;;;;;7.25;2.00;;;12.50;99.90;;;;;;5048926;28;20373;-74
2022/06/06 04:06:12;;;;;;;1.90;1.80;;;12.50;99.90;;;;;;5046209;28;20049;-74
2022/06/06 04:08:39;;;;;;;2.83;1.60;;;12.60;99.90;;;;;;5049520;28;20097;-74
2022/06/06 04:11:25;;;;;;;1.90;1.77;;;12.60;99.90;;;;;;5049674;28;20582;-73
2022/06/06 04:14:01;;;;;;;1.50;1.40;;;12.70;99.90;;;;;;5046411;28;20464;-74
2022/06/06 04:16:38;;;;;;;2.63;1.73;;;12.70;99.90;;;;;;5049487;28;20110;-74
2022/06/06 04:19:16;;;;;;;2.58;1.98;;;12.70;99.90;;;;;;5043666;28;20131;-73
2022/06/06 04:21:53;;;;;;;1.65;1.55;;;12.80;99.90;;;;;;5050989;28;20057;-74
2022/06/06 04:24:42;;;;;;;6.82;2.60;;;12.90;99.90;;;;;;5050327;28;20049;-74
2022/06/06 04:27:19;;;;;;;3.08;1.85;;;13.00;99.90;;;;;;5049870;28;20056;-73
2022/06/06 04:29:58;;;;;;;6.03;2.33;;;13.00;99.90;;;;;;5050864;28;20056;-78
2022/06/06 04:32:36;;;;;;;2.83;1.75;;;13.10;99.90;;;;;;5049052;28;20053;-79
2022/06/06 04:35:13;;;;;;;1.98;1.80;;;13.20;99.90;;;;;;5049672;28;20103;-78
2022/06/06 04:37:47;;;;;;;2.08;1.98;;;13.20;99.90;;;;;;5048195;28;20049;-78
2022/06/06 04:40:23;;;;;;;2.45;2.25;;;13.30;99.90;;;;;;5050181;28;20052;-78
2022/06/06 04:43:00;;;;;;;2.70;1.55;;;13.40;99.90;;;;;;5048223;28;20147;-78
2022/06/06 04:45:35;;;;;;;2.22;1.77;;;13.50;99.90;;;;;;5047572;28;20141;-74
2022/06/06 04:48:05;;;;;;;2.22;1.42;;;13.50;99.90;;;;;;5047150;28;20049;-73
2022/06/06 04:50:34;;;;;;;4.32;2.10;;;13.60;99.90;;;;;;5047971;28;20147;-77
2022/06/06 04:53:08;;;;;;;3.88;1.40;;;13.70;99.90;;;;;;5032461;28;20429;-77
2022/06/06 04:55:40;;;;;;;2.28;1.60;;;13.70;99.90;;;;;;5048045;28;20183;-73
2022/06/06 04:58:12;;;;;;;1.92;1.83;;;13.80;99.90;;;;;;5050846;28;20532;-75
2022/06/06 05:00:40;;;;;;;2.85;1.60;;;13.90;99.90;;;;;;5041764;28;20135;-75
2022/06/06 05:03:07;;;;;;;1.52;1.40;;;13.90;99.90;;;;;;5038961;28;20041;-75
2022/06/06 05:05:46;;;;;;;6.20;2.38;;;14.00;99.90;;;;;;5049530;28;20641;-74
2022/06/06 05:08:26;;;;;;;3.50;1.80;;;14.00;99.90;;;;;;5024614;28;20565;-75
2022/06/06 05:11:11;;;;;;;3.55;1.10;;;14.10;99.90;;;;;;5049839;28;20473;-75
2022/06/06 05:14:14;;;;;;;1.63;1.52;;;14.10;99.90;;;;;;5045645;28;20040;-74
2022/06/06 05:17:00;;;;;;;2.72;1.20;;;14.20;99.90;;;;;;5016611;28;20057;-74
2022/06/06 05:19:52;;;;;;;7.15;1.67;;;14.30;99.90;;;;;;5038790;28;20049;-77
2022/06/06 05:22:48;;;;;;;4.70;1.90;;;14.40;99.90;;;;;;5028600;28;20057;-78
2022/06/06 05:25:29;;;;;;;16.02;7.32;;;14.70;99.90;;;;;;5028673;28;20056;-79
2022/06/06 05:28:13;;;;;;;3.50;1.70;;;14.90;99.90;;;;;;5044500;28;20318;-78
2022/06/06 05:30:53;;;;;;;3.97;1.42;;;15.10;99.90;;;;;;5046913;28;20147;-78
2022/06/06 05:33:28;;;;;;;2.25;0.90;;;15.20;99.90;;;;;;5046875;28;20056;-75
2022/06/06 05:36:20;;;;;;;1.05;0.93;;;15.40;99.90;;;;;;5047845;28;20378;-75
2022/06/06 05:39:09;;;;;;;2.35;1.00;;;15.70;99.90;;;;;;5041460;28;20076;-75
2022/06/06 05:41:54;;;;;;;2.38;0.90;;;16.30;99.90;;;;;;5043588;28;20152;-76
2022/06/06 05:44:32;;;;;;;3.08;1.67;;;16.90;99.90;;;;;;5047366;28;20081;-75
2022/06/06 05:47:12;;;;;;;3.17;1.98;;;17.60;99.90;;;;;;5038202;28;20393;-76
2022/06/06 05:49:54;;;;;;;2.92;0.80;;;18.20;99.90;;;;;;5033513;28;20103;-81
2022/06/06 05:52:42;;;;;;;4.82;2.30;;;18.80;97.40;;;;;;5033559;28;20057;-79
2022/06/06 05:55:26;;;;;;;3.97;1.95;;;19.40;90.40;;;;;;5032684;28;20053;-77
2022/06/06 05:58:10;;;;;;;1.45;0.70;;;19.90;82.30;;;;;;5034647;28;20081;-78
2022/06/06 06:00:48;;;;;;;3.13;1.00;;;20.30;72.10;;;;;;5045936;28;20048;-79
2022/06/06 06:03:36;;;;;;;4.32;1.40;;;21.00;69.50;;;;;;5052361;28;20057;-83
2022/06/06 06:06:13;;;;;;;1.95;1.00;;;21.40;69.50;;;;;;5047497;28;20055;-79
2022/06/06 06:09:03;;;;;;;2.20;1.13;;;21.90;65.20;;;;;;5049378;28;20068;-81
2022/06/06 06:12:17;;;;;;;1.13;0.85;;;22.40;60.10;;;;;;5048267;28;20056;-80
2022/06/06 06:14:56;;;;;;;1.85;0.60;;;22.80;58.20;;;;;;5048284;28;20118;-80
2022/06/06 06:17:28;;;;;;;0.82;0.70;;;23.00;56.10;;;;;;5044257;28;20103;-80
2022/06/06 06:20:04;;;;;;;1.80;1.05;;;23.30;56.40;;;;;;5036141;28;20409;-80
2022/06/06 06:22:36;;;;;;;1.70;0.80;;;23.50;57.10;;;;;;5041360;28;20079;-81
2022/06/06 06:25:06;;;;;;;3.15;1.02;;;23.70;53.60;;;;;;5041634;28;20067;-80
2022/06/06 06:27:34;;;;;;;2.83;1.25;;;23.70;51.00;;;;;;5041887;28;20099;-80
2022/06/06 06:30:06;;;;;;;1.83;0.68;;;23.90;51.00;;;;;;5042943;28;20049;-80
2022/06/06 06:32:48;;;;;;;3.72;1.00;;;24.10;50.70;;;;;;5040214;28;20128;-79
2022/06/06 06:35:19;;;;;;;;;;;24.40;50.80;;;;;;5041690;28;20048;-80
2022/06/06 06:38:03;;;;;;;2.95;1.20;;;24.70;52.10;;;;;;5044443;28;19924;-81
2022/06/06 06:40:44;;;;;;;3.47;1.02;;;24.90;51.10;;;;;;5043163;28;20041;-82
2022/06/06 06:43:23;;;;;;;3.00;1.95;;;25.00;49.00;;;;;;5041156;28;20075;-81
2022/06/06 06:45:54;;;;;;;4.00;1.17;;;25.30;48.80;;;;;;5041089;28;20053;-81
2022/06/06 06:48:24;;;;;;;2.85;1.10;;;25.50;49.10;;;;;;5041130;28;20053;-83
2022/06/06 06:51:01;;;;;;;1.98;1.08;;;25.70;50.10;;;;;;5040855;28;20080;-82
2022/06/06 06:53:59;;;;;;;2.03;0.80;;;25.80;47.30;;;;;;5048574;28;20045;-82
2022/06/06 06:56:44;;;;;;;1.90;1.00;;;25.80;46.60;;;;;;5040019;28;20049;-83
2022/06/06 06:59:18;;;;;;;4.05;0.98;;;26.00;46.10;;;;;;5045944;28;20067;-81
2022/06/06 07:10:38;;;;;;;1.00;0.90;;;26.80;43.90;;;;;;5042639;28;20049;-82
2022/06/06 07:13:41;;;;;;;0.88;0.70;;;27.10;44.00;;;;;;5034133;28;20104;-83
2022/06/06 07:16:20;;;;;;;2.78;1.00;;;27.20;44.10;;;;;;5038059;28;20144;-84
2022/06/06 07:18:50;;;;;;;2.53;1.20;;;27.40;44.20;;;;;;5048274;28;20067;-83
2022/06/06 07:21:19;;;;;;;3.40;1.13;;;27.60;44.90;;;;;;5047856;28;20520;-83
2022/06/06 07:23:50;;;;;;;1.85;1.27;;;27.80;43.80;;;;;;5047803;28;20080;-81
2022/06/06 07:26:17;;;;;;;3.28;2.20;;;27.90;44.00;;;;;;5050504;28;20049;-82
2022/06/06 07:28:45;;;;;;;7.18;6.20;;;28.10;43.90;;;;;;5046873;28;20144;-83
2022/06/06 07:31:23;;;;;;;4.95;4.65;;;28.20;44.20;;;;;;5048922;28;20164;-83
2022/06/06 07:34:08;;;;;;;1.83;0.75;;;28.40;44.40;;;;;;5049128;28;20057;-81
2022/06/06 07:36:46;;;;;;;2.90;1.00;;;28.50;41.30;;;;;;5049714;28;20037;-82
2022/06/06 07:39:25;;;;;;;6.78;2.97;;;28.60;40.20;;;;;;5045384;28;20063;-82
2022/06/06 07:42:06;;;;;;;4.38;1.38;;;28.80;40.50;;;;;;5048637;28;20501;-81
2022/06/06 07:44:50;;;;;;;2.97;0.80;;;29.00;42.70;;;;;;5048791;28;20462;-82
2022/06/06 07:47:28;;;;;;;1.88;0.90;;;29.20;42.60;;;;;;5042257;28;20524;-83
2022/06/06 07:50:00;;;;;;;1.50;0.75;;;29.30;42.30;;;;;;5049432;28;20110;-84
2022/06/06 07:52:35;;;;;;;1.60;0.65;;;29.20;40.80;;;;;;5049073;28;20068;-84
2022/06/06 07:55:12;;;;;;;1.15;0.55;;;29.00;40.60;;;;;;5046971;28;20049;-82
2022/06/06 07:57:48;;;;;;;4.55;0.80;;;29.00;41.50;;;;;;5045702;28;20157;-82
2022/06/06 08:00:20;;;;;;;4.18;0.70;;;28.10;39.90;;;;;;5049011;28;20049;-83
2022/06/06 08:03:13;;;;;;;1.60;0.80;;;27.80;41.20;;;;;;5040432;28;20083;-84
2022/06/06 08:06:17;;;;;;;1.73;0.80;;;28.50;41.90;;;;;;5039896;28;20111;-81
2022/06/06 08:09:08;;;;;;;2.47;0.85;;;29.10;42.00;;;;;;5045524;28;20048;-84
2022/06/06 08:12:02;;;;;;;1.33;0.60;;;29.50;40.10;;;;;;5048405;28;20072;-86
2022/06/06 08:14:46;;;;;;;2.00;0.70;;;29.80;41.10;;;;;;5047182;28;20056;-86
2022/06/06 08:17:23;;;;;;;2.15;0.68;;;28.80;39.10;;;;;;5047382;28;20053;-86
2022/06/06 08:20:09;;;;;;;2.30;2.08;;;28.30;42.20;;;;;;5048731;28;20072;-86
2022/06/06 08:22:42;;;;;;;1.00;0.80;;;28.40;42.00;;;;;;5048193;28;20449;-85
2022/06/06 08:25:12;;;;;;;2.03;0.90;;;29.00;40.10;;;;;;5046629;28;20048;-85
2022/06/06 08:27:45;;;;;;;4.90;0.70;;;29.40;38.60;;;;;;5049570;28;20044;-83
2022/06/06 08:30:12;;;;;;;;;;;29.90;40.10;;;;;;5047491;28;20048;-85
2022/06/06 08:32:40;;;;;;;1.13;0.80;;;30.30;39.00;;;;;;5030639;28;20039;-85
2022/06/06 08:35:07;;;;;;;2.42;0.90;;;30.50;38.30;;;;;;5047558;28;20056;-87
2022/06/06 08:37:51;;;;;;;1.60;0.80;;;30.70;37.50;;;;;;5029286;28;20041;-88
2022/06/06 08:41:01;;;;;;;3.35;0.88;;;31.10;38.20;;;;;;5040952;28;20094;-85
2022/06/06 08:43:54;;;;;;;1.77;0.70;;;31.50;37.80;;;;;;5045860;28;20047;-83
2022/06/06 08:46:30;;;;;;;4.88;1.00;;;31.80;36.20;;;;;;5047161;28;20053;-82
2022/06/06 08:52:12;;;;;;;5.22;0.93;;;32.20;36.80;;;;;;5044584;28;20056;-80
2022/06/06 08:55:16;;;;;;;4.65;1.08;;;31.90;36.10;;;;;;5047980;28;20520;-77
2022/06/06 08:58:04;;;;;;;1.80;0.95;;;31.70;35.60;;;;;;5033897;28;20053;-78
2022/06/06 09:00:43;;;;;;;2.80;0.70;;;31.40;37.40;;;;;;5028786;28;20540;-78
2022/06/06 09:04:04;;;;;;;4.55;1.25;;;31.60;35.60;;;;;;5037078;28;20041;-79
2022/06/06 09:07:10;;;;;;;1.73;1.17;;;32.40;37.50;;;;;;5019209;28;20095;-80
2022/06/06 09:10:09;;;;;;;1.63;0.90;;;33.00;38.20;;;;;;5027927;28;20047;-79
2022/06/06 09:13:14;;;;;;;2.30;1.10;;;33.30;38.10;;;;;;5042774;28;20076;-79
2022/06/06 09:16:12;;;;;;;2.40;0.70;;;32.50;36.70;;;;;;5046094;28;20147;-79
2022/06/06 09:19:21;;;;;;;2.75;1.40;;;30.20;37.50;;;;;;5045781;28;20056;-78
2022/06/06 09:22:21;;;;;;;2.70;0.80;;;29.30;39.50;;;;;;5044606;28;20362;-79
2022/06/06 09:25:14;;;;;;;2.22;0.60;;;30.20;39.10;;;;;;5048584;28;20512;-78
2022/06/06 09:28:36;;;;;;;3.65;0.88;;;31.30;39.20;;;;;;5050085;28;20049;-79
2022/06/06 09:31:39;;;;;;;4.68;1.05;;;31.00;38.40;;;;;;5048853;28;20052;-79
2022/06/06 09:35:02;;;;;;;3.10;0.88;;;29.50;41.30;;;;;;5050156;28;20056;-80
2022/06/06 09:37:38;;;;;;;1.42;1.00;;;29.00;39.50;;;;;;5016697;28;20106;-80
2022/06/06 09:40:19;;;;;;;1.25;1.10;;;28.90;41.50;;;;;;5047452;28;20053;-80
2022/06/06 09:43:09;;;;;;;1.48;0.90;;;29.50;40.80;;;;;;5051176;28;20063;-78
2022/06/06 09:46:00;;;;;;;2.53;0.82;;;30.00;42.10;;;;;;5042809;28;20045;-81
2022/06/06 09:48:59;;;;;;;1.85;1.00;;;30.70;41.00;;;;;;5045713;28;20513;-78
2022/06/06 09:51:56;;;;;;;4.75;1.08;;;31.50;40.50;;;;;;5049829;28;20510;-78
2022/06/06 10:01:27;;;;;;;2.38;1.10;;;32.10;38.70;;;;;;5052447;28;20053;-78
2022/06/06 10:04:24;;;;;;;1.95;0.82;;;32.00;38.70;;;;;;5029134;28;20061;-78
2022/06/06 10:07:33;;;;;;;3.78;1.00;;;31.00;38.50;;;;;;5047962;28;20041;-79
2022/06/06 10:10:43;;;;;;;4.03;1.25;;;31.40;41.20;;;;;;4981899;28;20630;-78
2022/06/06 10:13:20;;;;;;;2.53;0.85;;;31.90;37.90;;;;;;5031212;28;20053;-79
2022/06/06 10:16:13;;;;;;;2.85;0.82;;;32.40;37.80;;;;;;5049144;28;20060;-79
2022/06/06 10:19:03;;;;;;;4.60;0.95;;;32.70;36.90;;;;;;5039286;28;20052;-81
2022/06/06 10:22:24;;;;;;;2.35;1.10;;;32.20;38.60;;;;;;5045543;28;20048;-78
2022/06/06 10:25:07;;;;;;;1.77;1.00;;;32.60;38.20;;;;;;4988379;28;20502;-80
2022/06/06 10:27:51;;;;;;;1.73;0.70;;;33.00;37.70;;;;;;5040195;28;20045;-80
2022/06/06 10:30:22;;;;;;;2.90;1.35;;;33.30;36.10;;;;;;5038681;28;20103;-80
2022/06/06 10:33:29;;;;;;;5.63;0.70;;;32.70;36.60;;;;;;5039747;28;20100;-80
2022/06/06 10:36:16;;;;;;;3.53;1.00;;;32.50;37.60;;;;;;5036267;28;20055;-80
2022/06/06 10:39:17;;;;;;;4.95;1.23;;;32.50;37.60;;;;;;5021974;28;20454;-80
2022/06/06 10:42:16;;;;;;;1.83;0.68;;;31.30;37.80;;;;;;5039041;28;20501;-80
2022/06/06 10:45:02;;;;;;;1.73;0.93;;;31.80;37.10;;;;;;5040363;28;20431;-80
2022/06/06 10:47:53;;;;;;;3.40;1.02;;;32.30;37.10;;;;;;5043867;28;20057;-78
2022/06/06 10:50:30;;;;;;;1.88;1.08;;;33.10;37.50;;;;;;5039300;28;20048;-77
2022/06/06 10:53:26;;;;;;;3.20;0.68;;;33.70;37.40;;;;;;5039434;28;20588;-77
2022/06/06 10:56:21;;;;;;;1.67;0.70;;;34.10;36.20;;;;;;5041250;28;20107;-77
2022/06/06 10:59:29;;;;;;;3.47;1.00;;;34.20;34.90;;;;;;5037700;28;20052;-76
2022/06/06 11:02:32;;;;;;;0.60;0.60;;;34.30;35.20;;;;;;5035752;28;20041;-78
2022/06/06 11:05:25;;;;;;;5.25;1.00;;;34.40;34.30;;;;;;5037476;28;20052;-78
2022/06/06 11:08:27;;;;;;;3.55;0.70;;;34.50;35.70;;;;;;5047212;28;20076;-77
2022/06/06 11:11:19;;;;;;;1.17;0.90;;;34.30;35.20;;;;;;5050675;28;20144;-77
2022/06/06 11:13:56;;;;;;;6.75;1.13;;;34.20;34.20;;;;;;5044294;28;20053;-78
2022/06/06 11:16:52;;;;;;;1.27;1.05;;;34.10;36.30;;;;;;5038897;28;20134;-83
2022/06/06 11:19:49;;;;;;;0.90;0.68;;;34.00;34.10;;;;;;5049909;28;20049;-83
2022/06/06 11:22:29;;;;;;;6.72;0.90;;;33.70;34.80;;;;;;5041568;28;20417;-83
2022/06/06 11:25:08;;;;;;;0.75;0.75;;;33.80;35.00;;;;;;5048150;28;20519;-82
2022/06/06 11:28:07;;;;;;;5.78;0.98;;;33.80;34.90;;;;;;5049810;28;20068;-86
2022/06/06 11:31:16;;;;;;;3.33;1.25;;;34.20;34.30;;;;;;5038836;28;20099;-81
2022/06/06 11:34:23;;;;;;;0.90;0.85;;;33.60;34.90;;;;;;5048157;28;20048;-82
2022/06/06 11:37:35;;;;;;;2.60;0.90;;;31.00;35.90;;;;;;5047456;28;20405;-80
2022/06/06 11:40:37;;;;;;;1.23;1.08;;;29.70;38.00;;;;;;5046289;28;20048;-81
2022/06/06 11:43:32;;;;;;;2.20;0.70;;;28.30;39.10;;;;;;5050230;28;20056;-81
2022/06/06 11:46:27;;;;;;;1.63;0.80;;;29.20;39.80;;;;;;5048208;28;20053;-82
2022/06/06 11:49:35;;;;;;;1.10;0.60;;;30.50;38.20;;;;;;5046159;28;20048;-81
2022/06/06 11:52:44;;;;;;;0.93;0.82;;;31.60;36.70;;;;;;5047394;28;20143;-81
2022/06/06 11:55:34;;;;;;;1.17;0.90;;;32.70;35.70;;;;;;5038517;28;20072;-82
2022/06/06 11:58:32;;;;;;;1.67;1.00;;;33.20;35.10;;;;;;5030224;28;20056;-82
2022/06/06 12:01:27;;;;;;;1.30;0.93;;;32.60;36.10;;;;;;5029737;28;20447;-82
2022/06/06 12:04:14;;;;;;;1.90;0.90;;;31.70;36.20;;;;;;5026481;28;20059;-82
2022/06/06 12:07:23;;;;;;;1.42;0.90;;;32.20;36.00;;;;;;5030081;28;20104;-83
2022/06/06 12:10:00;;;;;;;3.22;0.80;;;33.10;35.80;;;;;;5036981;28;20049;-83
2022/06/06 12:13:12;;;;;;;1.65;1.27;;;33.80;34.60;;;;;;5045715;28;20124;-83
2022/06/06 12:16:01;;;;;;;2.13;0.90;;;34.40;35.30;;;;;;5023131;28;20064;-83
2022/06/06 12:18:58;;;;;;;1.77;0.95;;;34.90;35.00;;;;;;5044937;28;20059;-79
2022/06/06 12:22:05;;;;;;;2.33;0.90;;;35.10;34.00;;;;;;5035124;28;20118;-83
2022/06/06 12:25:02;;;;;;;1.00;0.80;;;35.00;33.10;;;;;;5047537;28;20532;-84
2022/06/06 12:27:51;;;;;;;6.15;1.00;;;35.30;32.60;;;;;;5040009;28;20056;-82
2022/06/06 12:30:41;;;;;;;1.38;0.90;;;35.30;33.30;;;;;;5036766;28;20045;-81
2022/06/06 12:33:14;;;;;;;8.77;1.17;;;35.40;33.00;;;;;;5038665;28;20046;-81
2022/06/06 12:35:51;;;;;;;1.00;0.90;;;35.40;32.80;;;;;;5020588;28;20493;-81
2022/06/06 12:38:33;;;;;;;1.77;1.15;;;35.00;33.20;;;;;;5033195;28;20049;-82
2022/06/06 12:41:17;;;;;;;4.10;1.00;;;35.40;33.20;;;;;;5027556;28;20045;-87
2022/06/06 12:43:58;;;;;;;2.25;0.82;;;35.50;33.10;;;;;;5034624;28;20053;-79
2022/06/06 12:46:35;;;;;;;;;;;35.40;32.40;;;;;;5048317;28;20045;-77
2022/06/06 12:49:17;;;;;;;3.55;0.80;;;35.50;32.30;;;;;;5048485;28;19955;-76
2022/06/06 12:51:58;;;;;;;2.97;0.73;;;35.40;32.60;;;;;;5047425;28;20056;-78
2022/06/06 12:57:43;;;;;;;1.52;0.80;;;35.50;32.20;;;;;;5028896;28;20783;-77
2022/06/06 13:00:12;;;;;;;1.45;0.82;;;35.50;32.30;;;;;;5029832;28;20048;-77
2022/06/06 13:03:01;;;;;;;5.50;0.60;;;35.50;32.30;;;;;;5029520;28;20048;-77
2022/06/06 13:05:41;;;;;;;3.38;1.00;;;35.60;31.80;;;;;;5028123;28;20418;-78
2022/06/06 13:08:28;;;;;;;2.35;1.52;;;35.60;32.80;;;;;;5027159;28;20046;-77
2022/06/06 13:11:10;;;;;;;2.45;0.77;;;35.60;32.00;;;;;;5045482;28;20402;-77
2022/06/06 13:14:05;;;;;;;2.15;0.85;;;35.40;32.20;;;;;;5045362;28;20053;-78
2022/06/06 13:16:45;;;;;;;1.95;0.80;;;35.40;32.90;;;;;;5048023;28;20571;-77
2022/06/06 13:19:28;;;;;;;1.77;0.75;;;35.40;32.90;;;;;;5039736;28;20045;-76
2022/06/06 13:22:10;;;;;;;2.00;1.25;;;35.30;32.20;;;;;;5044817;28;20044;-79
2022/06/06 13:24:48;;;;;;;;;;;35.00;33.70;;;;;;5049438;28;20415;-78
2022/06/06 13:27:19;;;;;;;3.30;1.38;;;35.10;33.60;;;;;;5045871;28;19925;-79
2022/06/06 13:29:48;;;;;;;2.13;1.05;;;35.20;33.20;;;;;;5047207;28;20072;-77
2022/06/06 13:32:29;;;;;;;4.10;1.08;;;35.30;31.90;;;;;;5045840;28;20068;-75
2022/06/06 13:35:09;;;;;;;5.22;1.17;;;34.90;32.40;;;;;;5048293;28;20057;-76
2022/06/06 13:37:51;;;;;;;1.30;0.82;;;34.80;33.30;;;;;;5047319;28;20060;-76
2022/06/06 13:40:31;;;;;;;3.03;1.17;;;34.40;31.70;;;;;;5045444;28;20360;-77
2022/06/06 13:43:35;;;;;;;3.85;1.10;;;33.90;33.20;;;;;;5048518;28;20053;-79
2022/06/06 13:46:23;;;;;;;1.08;0.90;;;33.60;33.80;;;;;;5026235;28;20046;-75
2022/06/06 13:49:09;;;;;;;1.75;1.02;;;33.40;34.30;;;;;;5041694;28;20118;-78
2022/06/06 13:51:50;;;;;;;3.15;1.23;;;33.20;34.00;;;;;;5047595;28;20045;-80
2022/06/06 13:54:31;;;;;;;4.93;1.00;;;33.10;34.80;;;;;;5047861;28;20048;-77
2022/06/06 13:57:20;;;;;;;3.30;1.15;;;33.10;34.40;;;;;;5046846;28;20118;-78
2022/06/06 14:00:08;;;;;;;1.73;1.02;;;33.00;35.10;;;;;;5045928;28;20477;-78
2022/06/06 14:03:26;;;;;;;2.55;0.90;;;32.90;36.10;;;;;;5012754;28;20404;-77
2022/06/06 14:06:17;;;;;;;2.63;0.75;;;32.50;34.40;;;;;;4985921;28;20048;-77
2022/06/06 14:08:53;;;;;;;4.88;0.88;;;32.20;35.00;;;;;;5044032;28;20535;-80
2022/06/06 14:11:49;;;;;;;2.17;0.90;;;31.60;35.30;;;;;;5072196;28;20052;-78
2022/06/06 14:14:18;;;;;;;3.90;1.15;;;30.60;36.80;;;;;;5071476;28;20134;-78
2022/06/06 14:16:48;;;;;;;1.33;1.02;;;29.30;37.90;;;;;;5060027;28;20044;-78
2022/06/06 14:19:18;;;;;;;4.50;1.10;;;28.20;39.20;;;;;;5059500;28;20053;-83
2022/06/06 14:21:52;;;;;;;1.95;0.85;;;27.30;40.70;;;;;;5057949;28;20143;-83
2022/06/06 14:24:23;;;;;;;2.40;0.70;;;26.40;42.20;;;;;;5050473;28;20080;-80
2022/06/06 14:26:54;;;;;;;1.10;0.80;;;25.40;42.90;;;;;;5062906;28;20398;-76
2022/06/06 14:29:29;;;;;;;3.72;0.88;;;24.70;43.80;;;;;;5042197;28;20493;-77
2022/06/06 14:32:00;;;;;;;7.32;2.22;;;24.10;44.50;;;;;;5059010;28;20063;-76
2022/06/06 14:34:36;;;;;;;3.53;1.42;;;23.70;46.10;;;;;;5056682;28;20099;-77